Terminal Aerodrome Forecast
Issued by NWS

Home | Current Version | Previous Version | Text Only | Print | Product List | Glossary On
Versions: 1 2 3 4 5 6 7 8 9 10 11 12 13 14 15 16 17 18 19 20 21 22 23 24 25 26 27 28 29 30 31 32
000
FTUS45 KBOU 291218 AAA
TAFAPA
TAF AMD
KAPA 291218Z 2912/3012 VRB04KT 2SM -SN BR BKN012 OVC035
      TEMPO 2913/2915 1SM -SN BR BKN006 OVC010
     FM291500 07008KT 3/4SM -SN BR OVC006
     FM292200 04010KT 1 1/2SM -SN BR BKN007 OVC012
     FM300100 34008KT 2SM -SN BR BKN007 OVC012
     FM300500 34010KT 4SM -SN BR BKN009 OVC015=

USA.gov is the U.S. government's official web portal to all federal, state and local government web resources and services.